sensor_id;sensor_type;location;lat;lon;timestamp;P1;durP1;ratioP1;P2;durP2;ratioP2
59388;SDS011;51830;45.202;19.720;2023-07-20T03:25:28;13.18;;;2.80;;
59388;SDS011;51830;45.202;19.720;2023-07-20T03:46:42;10.77;;;2.40;;
59388;SDS011;51830;45.202;19.720;2023-07-20T05:56:15;9.15;;;2.42;;
59388;SDS011;51830;45.202;19.720;2023-07-20T06:01:53;13.00;;;3.15;;
59388;SDS011;51830;45.202;19.720;2023-07-20T06:07:46;10.77;;;2.70;;
59388;SDS011;51830;45.202;19.720;2023-07-20T06:19:09;10.82;;;2.72;;
59388;SDS011;51830;45.202;19.720;2023-07-20T06:21:42;11.50;;;2.90;;
59388;SDS011;51830;45.202;19.720;2023-07-20T06:24:34;9.90;;;2.67;;
59388;SDS011;51830;45.202;19.720;2023-07-20T06:27:41;15.90;;;2.88;;
59388;SDS011;51830;45.202;19.720;2023-07-20T06:30:13;10.52;;;2.88;;
59388;SDS011;51830;45.202;19.720;2023-07-20T06:33:08;11.38;;;2.75;;
59388;SDS011;51830;45.202;19.720;2023-07-20T06:35:43;12.68;;;2.72;;
59388;SDS011;51830;45.202;19.720;2023-07-20T06:38:20;11.25;;;2.78;;
59388;SDS011;51830;45.202;19.720;2023-07-20T06:41:14;11.43;;;2.90;;
59388;SDS011;51830;45.202;19.720;2023-07-20T06:43:45;12.43;;;2.90;;
59388;SDS011;51830;45.202;19.720;2023-07-20T06:46:22;9.32;;;2.83;;
59388;SDS011;51830;45.202;19.720;2023-07-20T06:48:59;9.43;;;2.47;;
59388;SDS011;51830;45.202;19.720;2023-07-20T06:51:36;10.20;;;2.50;;
59388;SDS011;51830;45.202;19.720;2023-07-20T06:54:16;10.43;;;2.78;;
59388;SDS011;51830;45.202;19.720;2023-07-20T06:56:50;11.05;;;2.80;;
59388;SDS011;51830;45.202;19.720;2023-07-20T06:59:49;12.20;;;3.03;;
59388;SDS011;51830;45.202;19.720;2023-07-20T07:02:33;12.60;;;2.97;;
59388;SDS011;51830;45.202;19.720;2023-07-20T07:05:08;8.80;;;2.40;;
59388;SDS011;51830;45.202;19.720;2023-07-20T07:08:23;9.52;;;2.67;;
59388;SDS011;51830;45.202;19.720;2023-07-20T07:11:14;11.27;;;2.40;;
59388;SDS011;51830;45.202;19.720;2023-07-20T07:14:20;8.98;;;2.53;;
59388;SDS011;51830;45.202;19.720;2023-07-20T10:08:14;13.23;;;3.33;;
59388;SDS011;51830;45.202;19.720;2023-07-20T10:11:02;14.02;;;3.25;;
59388;SDS011;51830;45.202;19.720;2023-07-20T10:16:35;14.68;;;3.20;;
59388;SDS011;51830;45.202;19.720;2023-07-20T10:34:03;16.05;;;3.28;;
59388;SDS011;51830;45.202;19.720;2023-07-20T11:26:40;10.63;;;2.95;;
59388;SDS011;51830;45.202;19.720;2023-07-20T11:29:07;13.18;;;3.40;;
59388;SDS011;51830;45.202;19.720;2023-07-20T11:31:40;13.25;;;3.20;;
59388;SDS011;51830;45.202;19.720;2023-07-20T11:34:10;12.27;;;3.25;;
59388;SDS011;51830;45.202;19.720;2023-07-20T11:36:39;13.40;;;3.20;;
59388;SDS011;51830;45.202;19.720;2023-07-20T11:39:10;11.65;;;3.05;;
59388;SDS011;51830;45.202;19.720;2023-07-20T11:44:32;13.55;;;3.22;;
59388;SDS011;51830;45.202;19.720;2023-07-20T11:47:02;12.30;;;3.05;;
59388;SDS011;51830;45.202;19.720;2023-07-20T11:50:16;12.23;;;3.10;;
59388;SDS011;51830;45.202;19.720;2023-07-20T11:52:29;13.95;;;3.35;;
59388;SDS011;51830;45.202;19.720;2023-07-20T11:54:57;15.60;;;3.50;;
59388;SDS011;51830;45.202;19.720;2023-07-20T11:57:23;11.45;;;2.97;;
59388;SDS011;51830;45.202;19.720;2023-07-20T11:59:56;11.48;;;3.08;;
59388;SDS011;51830;45.202;19.720;2023-07-20T12:02:27;19.67;;;3.10;;
59388;SDS011;51830;45.202;19.720;2023-07-20T12:05:06;12.93;;;3.08;;
59388;SDS011;51830;45.202;19.720;2023-07-20T13:22:00;14.10;;;3.50;;
59388;SDS011;51830;45.202;19.720;2023-07-20T13:24:35;14.35;;;3.40;;
59388;SDS011;51830;45.202;19.720;2023-07-20T13:30:34;11.20;;;2.92;;
59388;SDS011;51830;45.202;19.720;2023-07-20T13:36:09;13.43;;;3.38;;
59388;SDS011;51830;45.202;19.720;2023-07-20T13:41:51;11.90;;;3.20;;
59388;SDS011;51830;45.202;19.720;2023-07-20T13:47:35;11.68;;;3.10;;
59388;SDS011;51830;45.202;19.720;2023-07-20T13:50:08;11.52;;;2.97;;
59388;SDS011;51830;45.202;19.720;2023-07-20T13:52:40;13.48;;;3.08;;
59388;SDS011;51830;45.202;19.720;2023-07-20T13:58:29;11.88;;;3.05;;
59388;SDS011;51830;45.202;19.720;2023-07-20T14:01:41;12.48;;;3.15;;
59388;SDS011;51830;45.202;19.720;2023-07-20T14:10:39;12.32;;;3.28;;
59388;SDS011;51830;45.202;19.720;2023-07-20T14:13:36;11.07;;;3.03;;
59388;SDS011;51830;45.202;19.720;2023-07-20T14:19:28;12.35;;;3.00;;
59388;SDS011;51830;45.202;19.720;2023-07-20T14:28:31;13.88;;;3.10;;
59388;SDS011;51830;45.202;19.720;2023-07-20T14:31:11;10.90;;;3.05;;
59388;SDS011;51830;45.202;19.720;2023-07-20T14:33:46;12.65;;;3.20;;
59388;SDS011;51830;45.202;19.720;2023-07-20T14:39:22;13.13;;;3.20;;
59388;SDS011;51830;45.202;19.720;2023-07-20T14:41:55;11.90;;;2.92;;
59388;SDS011;51830;45.202;19.720;2023-07-20T14:44:34;13.95;;;3.10;;
59388;SDS011;51830;45.202;19.720;2023-07-20T14:56:29;14.18;;;3.08;;
59388;SDS011;51830;45.202;19.720;2023-07-20T15:05:09;13.57;;;3.00;;
59388;SDS011;51830;45.202;19.720;2023-07-20T15:10:45;10.80;;;2.85;;
59388;SDS011;51830;45.202;19.720;2023-07-20T15:13:29;13.07;;;3.10;;
59388;SDS011;51830;45.202;19.720;2023-07-20T15:16:15;10.73;;;2.85;;
59388;SDS011;51830;45.202;19.720;2023-07-20T15:21:57;11.57;;;2.92;;
59388;SDS011;51830;45.202;19.720;2023-07-20T15:27:47;10.95;;;2.92;;
59388;SDS011;51830;45.202;19.720;2023-07-20T15:30:45;13.43;;;3.22;;
59388;SDS011;51830;45.202;19.720;2023-07-20T15:33:20;10.77;;;2.70;;
59388;SDS011;51830;45.202;19.720;2023-07-20T15:39:10;12.23;;;3.33;;
59388;SDS011;51830;45.202;19.720;2023-07-20T15:41:50;9.82;;;2.70;;
59388;SDS011;51830;45.202;19.720;2023-07-20T15:47:55;13.88;;;3.30;;
59388;SDS011;51830;45.202;19.720;2023-07-20T15:50:31;16.58;;;2.90;;
59388;SDS011;51830;45.202;19.720;2023-07-20T15:53:10;11.63;;;2.92;;
59388;SDS011;51830;45.202;19.720;2023-07-20T15:55:57;13.00;;;3.10;;
59388;SDS011;51830;45.202;19.720;2023-07-20T15:58:43;14.15;;;3.40;;
59388;SDS011;51830;45.202;19.720;2023-07-20T16:01:24;12.55;;;3.00;;
59388;SDS011;51830;45.202;19.720;2023-07-20T16:04:25;10.77;;;2.78;;
59388;SDS011;51830;45.202;19.720;2023-07-20T16:07:36;11.25;;;3.10;;
59388;SDS011;51830;45.202;19.720;2023-07-20T16:10:27;10.70;;;2.53;;
59388;SDS011;51830;45.202;19.720;2023-07-20T16:13:08;11.35;;;2.90;;
59388;SDS011;51830;45.202;19.720;2023-07-20T16:15:44;12.63;;;3.05;;
59388;SDS011;51830;45.202;19.720;2023-07-20T16:18:21;12.30;;;3.42;;
59388;SDS011;51830;45.202;19.720;2023-07-20T16:21:04;12.07;;;3.10;;
59388;SDS011;51830;45.202;19.720;2023-07-20T16:23:36;12.30;;;3.20;;
59388;SDS011;51830;45.202;19.720;2023-07-20T16:35:23;13.25;;;3.25;;
59388;SDS011;51830;45.202;19.720;2023-07-20T16:37:56;11.63;;;2.90;;
59388;SDS011;51830;45.202;19.720;2023-07-20T16:40:37;12.77;;;3.00;;
59388;SDS011;51830;45.202;19.720;2023-07-20T16:43:17;12.73;;;2.85;;
59388;SDS011;51830;45.202;19.720;2023-07-20T16:46:00;12.65;;;3.13;;
59388;SDS011;51830;45.202;19.720;2023-07-20T16:51:41;15.38;;;2.95;;
59388;SDS011;51830;45.202;19.720;2023-07-20T16:54:36;12.40;;;2.88;;
59388;SDS011;51830;45.202;19.720;2023-07-20T17:03:51;14.43;;;3.30;;
59388;SDS011;51830;45.202;19.720;2023-07-20T17:06:40;12.45;;;3.00;;
59388;SDS011;51830;45.202;19.720;2023-07-20T17:09:06;12.95;;;3.22;;
59388;SDS011;51830;45.202;19.720;2023-07-20T17:11:32;14.88;;;3.28;;
59388;SDS011;51830;45.202;19.720;2023-07-20T17:13:59;35.05;;;14.40;;
59388;SDS011;51830;45.202;19.720;2023-07-20T17:16:25;50.13;;;23.90;;
59388;SDS011;51830;45.202;19.720;2023-07-20T17:18:51;53.40;;;24.45;;
59388;SDS011;51830;45.202;19.720;2023-07-20T17:21:17;44.22;;;14.15;;
59388;SDS011;51830;45.202;19.720;2023-07-20T17:23:44;20.90;;;6.90;;
59388;SDS011;51830;45.202;19.720;2023-07-20T17:26:11;34.30;;;7.43;;
59388;SDS011;51830;45.202;19.720;2023-07-20T17:28:37;62.75;;;7.80;;
59388;SDS011;51830;45.202;19.720;2023-07-20T17:31:03;28.90;;;8.57;;
59388;SDS011;51830;45.202;19.720;2023-07-20T17:33:31;23.60;;;5.88;;
59388;SDS011;51830;45.202;19.720;2023-07-20T17:35:57;24.20;;;7.38;;
59388;SDS011;51830;45.202;19.720;2023-07-20T17:38:24;19.25;;;5.25;;
59388;SDS011;51830;45.202;19.720;2023-07-20T17:40:50;15.52;;;3.67;;
59388;SDS011;51830;45.202;19.720;2023-07-20T17:43:20;15.35;;;4.47;;
59388;SDS011;51830;45.202;19.720;2023-07-20T17:45:47;16.48;;;4.10;;
59388;SDS011;51830;45.202;19.720;2023-07-20T17:48:14;18.98;;;4.65;;
59388;SDS011;51830;45.202;19.720;2023-07-20T17:50:43;12.85;;;3.90;;
59388;SDS011;51830;45.202;19.720;2023-07-20T17:53:11;13.35;;;3.42;;
59388;SDS011;51830;45.202;19.720;2023-07-20T17:55:37;15.35;;;3.35;;
59388;SDS011;51830;45.202;19.720;2023-07-20T17:58:04;14.38;;;3.55;;
59388;SDS011;51830;45.202;19.720;2023-07-20T18:00:30;15.98;;;3.70;;
59388;SDS011;51830;45.202;19.720;2023-07-20T18:02:56;22.17;;;3.95;;
59388;SDS011;51830;45.202;19.720;2023-07-20T18:05:23;14.68;;;3.33;;
59388;SDS011;51830;45.202;19.720;2023-07-20T18:07:50;13.98;;;3.58;;
59388;SDS011;51830;45.202;19.720;2023-07-20T18:10:16;12.85;;;3.20;;
59388;SDS011;51830;45.202;19.720;2023-07-20T18:12:42;15.00;;;3.35;;
59388;SDS011;51830;45.202;19.720;2023-07-20T18:15:09;14.40;;;3.90;;
59388;SDS011;51830;45.202;19.720;2023-07-20T18:17:35;19.45;;;3.80;;
59388;SDS011;51830;45.202;19.720;2023-07-20T18:20:03;13.98;;;3.70;;
59388;SDS011;51830;45.202;19.720;2023-07-20T18:22:29;13.85;;;3.67;;
59388;SDS011;51830;45.202;19.720;2023-07-20T18:24:56;19.88;;;3.55;;
59388;SDS011;51830;45.202;19.720;2023-07-20T18:27:22;12.80;;;3.08;;
59388;SDS011;51830;45.202;19.720;2023-07-20T18:29:48;15.07;;;3.63;;
59388;SDS011;51830;45.202;19.720;2023-07-20T18:32:16;15.45;;;3.58;;
59388;SDS011;51830;45.202;19.720;2023-07-20T18:34:42;20.58;;;4.03;;
59388;SDS011;51830;45.202;19.720;2023-07-20T18:37:09;15.82;;;3.88;;
59388;SDS011;51830;45.202;19.720;2023-07-20T18:39:36;14.52;;;3.75;;
59388;SDS011;51830;45.202;19.720;2023-07-20T18:42:03;16.83;;;3.70;;
59388;SDS011;51830;45.202;19.720;2023-07-20T18:44:29;14.35;;;3.40;;
59388;SDS011;51830;45.202;19.720;2023-07-20T18:46:56;14.75;;;3.53;;
59388;SDS011;51830;45.202;19.720;2023-07-20T18:49:23;14.93;;;3.67;;
59388;SDS011;51830;45.202;19.720;2023-07-20T18:51:52;14.93;;;3.38;;
59388;SDS011;51830;45.202;19.720;2023-07-20T18:54:20;14.85;;;3.40;;
59388;SDS011;51830;45.202;19.720;2023-07-20T18:56:49;12.38;;;3.08;;
59388;SDS011;51830;45.202;19.720;2023-07-20T18:59:16;14.00;;;3.33;;
